Time;durP1;ratioP1;P1;durP2;ratioP2;P2;SDS_P1;SDS_P2;PMS_P1;PMS_P2;Temp;Humidity;BMP_temperature;BMP_pressure;BME280_temperature;BME280_humidity;BME280_pressure;Samples;Min_cycle;Max_cycle;Signal;HPM_P1;HPM_P2
2021/07/26 00:00:46;;;;;;;6.27;5.67;;;;;;;21.43;65.94;96221.16;5085979;28;20205;-69
2021/07/26 00:03:12;;;;;;;7.23;6.00;;;;;;;21.41;65.76;96217.97;5090028;28;20316;-68
2021/07/26 00:05:37;;;;;;;6.43;5.90;;;;;;;21.38;65.90;96218.44;5092514;28;20546;-69
2021/07/26 00:08:03;;;;;;;6.40;5.20;;;;;;;21.33;66.41;96217.31;5091825;28;20625;-69
2021/07/26 00:10:29;;;;;;;6.47;4.97;;;;;;;21.36;66.50;96209.88;5091307;28;20205;-69
2021/07/26 00:12:54;;;;;;;7.40;5.30;;;;;;;21.35;66.07;96209.09;5092214;28;20588;-69
2021/07/26 00:15:20;;;;;;;6.77;6.07;;;;;;;21.38;66.03;96227.25;5091918;28;20186;-70
2021/07/26 00:17:45;;;;;;;7.20;5.97;;;;;;;21.37;66.12;96233.63;5091955;28;20188;-72
2021/07/26 00:20:12;;;;;;;6.20;5.57;;;;;;;21.37;65.85;96222.16;5090927;28;20209;-70
2021/07/26 00:22:38;;;;;;;7.80;5.30;;;;;;;21.33;66.28;96217.31;5091531;28;20188;-71
2021/07/26 00:25:06;;;;;;;6.70;5.03;;;;;;;21.38;66.15;96210.47;5091550;28;20510;-69
2021/07/26 00:27:31;;;;;;;6.63;5.90;;;;;;;21.32;66.49;96223.69;5091681;28;21256;-70
2021/07/26 00:29:57;;;;;;;11.53;5.40;;;;;;;21.27;66.32;96222.81;5089708;28;20510;-69
2021/07/26 00:32:23;;;;;;;8.40;5.87;;;;;;;21.28;66.69;96225.25;5083788;28;20644;-70
2021/07/26 00:34:48;;;;;;;7.07;6.07;;;;;;;21.33;66.25;96219.97;5091158;28;20189;-70
2021/07/26 00:37:14;;;;;;;6.10;5.50;;;;;;;21.32;66.63;96223.69;5090973;28;20268;-69
2021/07/26 00:39:39;;;;;;;8.23;5.90;;;;;;;21.32;66.66;96225.56;5089174;28;20202;-70
2021/07/26 00:42:05;;;;;;;8.40;5.73;;;;;;;21.35;66.23;96226.94;5090278;28;20227;-69
2021/07/26 00:44:32;;;;;;;6.47;5.70;;;;;;;21.33;66.26;96227.19;5091128;28;20726;-70
2021/07/26 00:46:59;;;;;;;9.47;5.80;;;;;;;21.32;66.29;96230.91;5091015;28;20256;-70
2021/07/26 00:49:26;;;;;;;7.57;5.60;;;;;;;21.31;66.22;96229.28;5091456;28;20422;-70
2021/07/26 00:51:53;;;;;;;6.30;5.70;;;;;;;21.28;66.61;96227.94;5095000;28;20427;-70
2021/07/26 00:54:21;;;;;;;6.00;5.07;;;;;;;21.25;66.66;96227.59;5091910;28;20481;-69
2021/07/26 00:56:47;;;;;;;7.77;6.10;;;;;;;21.23;66.75;96230.50;5090267;28;20526;-69
2021/07/26 00:59:14;;;;;;;6.53;5.90;;;;;;;21.21;66.75;96235.25;5093009;28;20842;-68
2021/07/26 01:01:40;;;;;;;7.60;5.30;;;;;;;21.17;66.82;96229.63;5089507;28;20444;-69
2021/07/26 01:04:05;;;;;;;10.03;5.90;;;;;;;21.19;66.67;96237.34;5102424;28;20528;-69
2021/07/26 01:06:31;;;;;;;7.07;6.37;;;;;;;21.18;66.75;96230.41;5073194;28;20276;-70
2021/07/26 01:08:57;;;;;;;7.57;5.97;;;;;;;21.14;66.98;96235.44;5090289;28;20178;-69
2021/07/26 01:11:23;;;;;;;7.63;6.40;;;;;;;21.13;67.02;96238.34;5091472;28;20228;-70
2021/07/26 01:13:49;;;;;;;6.80;5.93;;;;;;;21.06;67.23;96249.16;5089719;28;20205;-68
2021/07/26 01:16:15;;;;;;;12.70;5.73;;;;;;;21.05;67.13;96244.06;5090792;28;20447;-69
2021/07/26 01:18:40;;;;;;;11.77;5.20;;;;;;;21.00;67.24;96244.78;5090332;28;20424;-68
2021/07/26 01:21:16;;;;;;;6.17;5.57;;;;;;;20.87;67.59;96238.75;5090991;28;20266;-69
2021/07/26 01:23:44;;;;;;;14.50;5.87;;;;;;;20.84;68.12;96233.09;5091139;28;20295;-70
2021/07/26 01:26:12;;;;;;;7.83;6.43;;;;;;;20.84;68.30;96233.09;5090420;28;20545;-68
2021/07/26 01:28:40;;;;;;;8.60;6.13;;;;;;;20.71;68.74;96235.00;5091246;28;20518;-68
2021/07/26 01:31:06;;;;;;;6.47;5.87;;;;;;;20.75;68.88;96232.69;5083025;28;20448;-70
2021/07/26 01:33:33;;;;;;;10.70;7.27;;;;;;;20.69;68.71;96237.09;5090515;28;20443;-70
2021/07/26 01:35:58;;;;;;;7.00;6.10;;;;;;;20.71;68.78;96232.34;5090049;28;20428;-68
2021/07/26 01:38:24;;;;;;;7.40;6.43;;;;;;;20.67;68.79;96241.03;5090393;28;20432;-71
2021/07/26 01:40:50;;;;;;;9.90;6.43;;;;;;;20.66;68.86;96234.09;5090651;28;20224;-67
2021/07/26 01:43:17;;;;;;;7.20;5.90;;;;;;;20.67;68.64;96235.72;5090622;28;20642;-71
2021/07/26 01:45:50;;;;;;;8.93;6.60;;;;;;;20.35;69.98;96239.69;5088446;28;20477;-70
2021/07/26 01:48:22;;;;;;;6.60;6.00;;;;;;;20.61;68.82;96231.34;5089763;28;20419;-68
2021/07/26 01:50:52;;;;;;;7.17;6.30;;;;;;;20.62;68.75;96227.63;5090798;28;20526;-69
2021/07/26 01:53:18;;;;;;;7.57;6.13;;;;;;;20.65;68.64;96228.00;5089819;28;20416;-70
2021/07/26 01:55:44;;;;;;;9.43;5.97;;;;;;;20.74;68.52;96224.91;5090903;28;20778;-69
2021/07/26 01:58:10;;;;;;;14.40;6.17;;;;;;;20.38;69.72;96225.94;5089398;28;20178;-70
2021/07/26 02:00:35;;;;;;;6.53;5.93;;;;;;;20.54;69.12;96228.88;5086541;28;20194;-69
2021/07/26 02:03:01;;;;;;;8.90;6.33;;;;;;;20.60;68.75;96227.09;5086984;28;20451;-72
2021/07/26 02:05:27;;;;;;;6.80;6.10;;;;;;;20.57;68.74;96236.34;5081558;28;20177;-69
2021/07/26 02:07:53;;;;;;;7.33;6.20;;;;;;;20.61;68.46;96226.03;5090761;28;20193;-68
2021/07/26 02:10:18;;;;;;;7.37;6.57;;;;;;;20.45;69.30;96222.28;5094467;28;20443;-69
2021/07/26 02:12:44;;;;;;;8.00;6.47;;;;;;;20.35;69.25;96223.75;5093468;28;20201;-69
2021/07/26 02:15:10;;;;;;;14.93;6.40;;;;;;;20.55;68.61;96223.28;5092836;28;20189;-70
2021/07/26 02:17:35;;;;;;;8.27;6.63;;;;;;;20.61;69.00;96226.84;5094537;28;20212;-69
2021/07/26 02:20:01;;;;;;;10.00;7.37;;;;;;;20.58;68.74;96221.19;5094222;28;20201;-69
2021/07/26 02:22:26;;;;;;;7.83;6.30;;;;;;;20.60;68.74;96225.22;5093498;28;20182;-70
2021/07/26 02:24:52;;;;;;;7.50;6.67;;;;;;;20.40;69.44;96226.50;5094078;28;20226;-69
2021/07/26 02:27:17;;;;;;;7.50;6.73;;;;;;;20.62;68.72;96230.31;5094868;28;20181;-69
2021/07/26 02:29:43;;;;;;;8.30;6.70;;;;;;;20.41;69.47;96236.06;5094403;28;20204;-69
2021/07/26 02:32:09;;;;;;;7.27;6.50;;;;;;;20.55;68.92;96233.94;5086487;28;20204;-70
2021/07/26 02:34:34;;;;;;;7.20;6.50;;;;;;;20.26;69.48;96235.81;5094206;28;20721;-69
2021/07/26 02:37:00;;;;;;;7.30;6.57;;;;;;;20.33;69.59;96231.16;5094243;28;20181;-68
2021/07/26 02:39:25;;;;;;;8.23;5.73;;;;;;;20.47;69.21;96228.19;5093431;28;20220;-70
2021/07/26 02:41:51;;;;;;;7.57;6.87;;;;;;;20.56;68.93;96240.06;5092983;28;20279;-70
2021/07/26 02:44:16;;;;;;;7.13;6.43;;;;;;;20.49;69.02;96242.06;5093052;28;20250;-67
2021/07/26 02:46:42;;;;;;;6.83;5.63;;;;;;;20.58;68.73;96237.16;5092298;28;20205;-68
2021/07/26 02:49:07;;;;;;;6.90;6.30;;;;;;;20.68;68.61;96238.13;5095712;28;20599;-69
2021/07/26 02:51:33;;;;;;;8.27;5.80;;;;;;;20.69;68.33;96244.28;5093612;28;20289;-69
2021/07/26 02:53:59;;;;;;;10.23;5.63;;;;;;;20.71;67.87;96250.97;5093385;28;20182;-68
2021/07/26 02:56:24;;;;;;;8.37;5.30;;;;;;;20.66;68.29;96250.91;5093353;28;20223;-69
2021/07/26 02:58:50;;;;;;;8.47;6.30;;;;;;;20.75;67.99;96255.84;5092792;28;20181;-68
2021/07/26 03:01:18;;;;;;;6.97;6.27;;;;;;;20.68;68.08;96258.63;5085360;28;20209;-68
2021/07/26 03:03:44;;;;;;;9.20;6.30;;;;;;;20.80;67.59;96245.28;5093399;28;20675;-66
2021/07/26 03:06:17;;;;;;;8.03;6.17;;;;;;;20.72;67.92;96249.94;5094231;28;20503;-70
2021/07/26 03:08:42;;;;;;;7.00;6.27;;;;;;;20.52;69.08;96254.91;5093571;28;20201;-69
2021/07/26 03:11:11;;;;;;;7.50;5.70;;;;;;;20.62;68.59;96254.25;5090628;28;20505;-69
2021/07/26 03:13:41;;;;;;;6.50;5.83;;;;;;;20.77;68.21;96256.41;5093288;28;20185;-69
2021/07/26 03:16:08;;;;;;;6.53;5.93;;;;;;;20.67;68.42;96255.16;5093111;28;20545;-68
2021/07/26 03:18:33;;;;;;;6.10;5.50;;;;;;;20.76;68.18;96252.13;5092681;28;20498;-70
2021/07/26 03:20:59;;;;;;;5.70;5.20;;;;;;;20.90;67.43;96253.44;5078867;28;20588;-68
2021/07/26 03:23:25;;;;;;;6.93;5.43;;;;;;;20.93;67.13;96260.94;5091089;28;20205;-69
2021/07/26 03:25:51;;;;;;;6.67;5.83;;;;;;;20.97;67.33;96264.72;5093167;28;20755;-69
2021/07/26 03:28:16;;;;;;;7.00;5.90;;;;;;;20.94;67.12;96267.88;5092677;28;20451;-69
2021/07/26 03:30:42;;;;;;;5.97;5.37;;;;;;;20.91;67.02;96267.56;5092755;28;20213;-70
2021/07/26 03:33:08;;;;;;;6.90;5.40;;;;;;;20.98;67.01;96268.22;5092639;28;20177;-69
2021/07/26 03:35:33;;;;;;;8.83;5.77;;;;;;;21.00;67.00;96268.75;5091694;28;20205;-70
2021/07/26 03:37:59;;;;;;;8.90;5.77;;;;;;;21.01;67.08;96273.03;5091929;28;20269;-69
2021/07/26 03:40:25;;;;;;;6.00;5.40;;;;;;;20.95;66.84;96274.81;5091602;28;20204;-71
2021/07/26 03:42:50;;;;;;;6.83;5.83;;;;;;;21.00;66.94;96274.91;5092382;28;20217;-69
2021/07/26 03:45:19;;;;;;;7.10;5.27;;;;;;;20.99;66.85;96275.97;5092182;28;20182;-68
2021/07/26 03:47:44;;;;;;;8.33;5.70;;;;;;;21.02;66.53;96275.47;5092674;28;20185;-69
2021/07/26 03:50:11;;;;;;;7.10;5.47;;;;;;;21.05;66.48;96268.03;5090223;28;20452;-69
2021/07/26 03:52:44;;;;;;;6.77;6.03;;;;;;;20.99;66.93;96269.81;5092624;28;20188;-68
2021/07/26 03:55:12;;;;;;;6.53;5.70;;;;;;;21.02;66.72;96262.16;5091510;28;20451;-69
2021/07/26 03:57:37;;;;;;;8.40;5.90;;;;;;;21.07;66.37;96265.94;5091630;28;20496;-71
2021/07/26 04:00:03;;;;;;;9.47;6.40;;;;;;;20.94;66.77;96262.53;5090649;28;20471;-69
2021/07/26 04:02:29;;;;;;;8.37;5.37;;;;;;;20.90;66.85;96261.44;5092210;28;20190;-69
2021/07/26 04:04:54;;;;;;;10.43;6.03;;;;;;;20.89;66.87;96259.00;5091863;28;20832;-69
2021/07/26 04:07:23;;;;;;;6.23;5.63;;;;;;;20.85;67.06;96272.81;5091661;28;20182;-70
2021/07/26 04:09:55;;;;;;;6.97;5.93;;;;;;;20.81;67.08;96270.84;5091985;28;20201;-68
2021/07/26 04:12:24;;;;;;;11.33;5.83;;;;;;;20.83;67.27;96269.56;5091522;28;20431;-69
2021/07/26 04:14:50;;;;;;;8.03;5.80;;;;;;;20.81;66.88;96268.19;5090490;28;20416;-69
2021/07/26 04:17:15;;;;;;;9.30;5.73;;;;;;;20.84;66.90;96263.22;5091345;28;20435;-69
2021/07/26 04:19:41;;;;;;;7.80;5.70;;;;;;;20.91;66.62;96268.38;5086037;28;20193;-70
2021/07/26 04:22:07;;;;;;;5.77;5.20;;;;;;;20.95;66.38;96261.50;5088161;28;20192;-70
2021/07/26 04:24:32;;;;;;;14.23;5.80;;;;;;;20.95;66.60;96261.50;5091489;28;20262;-69
2021/07/26 04:26:58;;;;;;;6.80;6.10;;;;;;;20.90;66.79;96261.44;5091610;28;20174;-69
2021/07/26 04:29:23;;;;;;;7.27;5.60;;;;;;;20.77;67.07;96261.75;5091878;28;20702;-68
2021/07/26 04:31:50;;;;;;;10.00;5.90;;;;;;;20.78;66.79;96264.16;5092088;28;20182;-69
2021/07/26 04:34:16;;;;;;;13.90;5.97;;;;;;;20.85;66.90;96259.50;5095726;28;20205;-70
2021/07/26 04:36:41;;;;;;;6.20;5.43;;;;;;;20.89;66.85;96257.16;5094717;28;20415;-71
2021/07/26 04:39:07;;;;;;;6.70;6.00;;;;;;;20.91;66.25;96255.06;5091093;28;20434;-69
2021/07/26 04:41:33;;;;;;;9.23;6.23;;;;;;;20.94;66.52;96257.22;5091570;28;20691;-69
2021/07/26 04:43:59;;;;;;;6.63;5.80;;;;;;;20.92;66.58;96259.31;5091493;28;20197;-69
2021/07/26 04:46:25;;;;;;;8.43;5.93;;;;;;;21.02;66.17;96264.81;5091759;28;20242;-68
2021/07/26 04:48:50;;;;;;;6.67;5.97;;;;;;;21.00;65.77;96261.59;5091865;28;20917;-69
2021/07/26 04:51:16;;;;;;;10.93;5.70;;;;;;;21.13;65.85;96264.97;5085984;28;20200;-68
2021/07/26 04:53:41;;;;;;;8.50;5.50;;;;;;;21.11;65.31;96259.09;5096888;27;20178;-68
2021/07/26 04:56:07;;;;;;;11.20;6.10;;;;;;;21.07;65.85;96265.94;5091376;28;20230;-69
2021/07/26 04:58:33;;;;;;;14.43;6.37;;;;;;;21.10;65.57;96270.78;5091752;28;20178;-70
2021/07/26 05:01:00;;;;;;;9.50;5.97;;;;;;;21.16;65.12;96265.28;5090223;28;20688;-68
2021/07/26 05:03:25;;;;;;;8.80;5.70;;;;;;;21.12;64.97;96272.16;5090823;28;20443;-69
2021/07/26 05:05:51;;;;;;;11.27;6.33;;;;;;;21.08;65.31;96281.69;5091583;28;20420;-70
2021/07/26 05:08:16;;;;;;;6.10;5.50;;;;;;;21.11;65.06;96283.84;5090174;28;20186;-68
2021/07/26 05:10:46;;;;;;;12.87;5.53;;;;;;;21.17;65.19;96287.44;5091230;28;20209;-69
2021/07/26 05:13:12;;;;;;;9.63;6.10;;;;;;;21.12;64.73;96290.78;5090334;28;20177;-70
2021/07/26 05:15:38;;;;;;;7.57;5.77;;;;;;;21.14;64.83;96288.69;5090887;28;20914;-70
2021/07/26 05:18:03;;;;;;;6.43;5.50;;;;;;;21.20;64.92;96286.91;5090756;28;20174;-69
2021/07/26 05:20:29;;;;;;;6.13;5.10;;;;;;;21.21;64.52;96287.75;5086839;28;20244;-68
2021/07/26 05:22:55;;;;;;;7.00;5.70;;;;;;;21.26;64.23;96296.63;5091173;28;20236;-70
2021/07/26 05:25:20;;;;;;;7.67;5.83;;;;;;;21.31;64.06;96293.22;5090198;28;20690;-69
2021/07/26 05:27:46;;;;;;;7.60;5.50;;;;;;;21.23;63.76;96296.31;5088834;28;20593;-68
2021/07/26 05:30:12;;;;;;;10.03;5.33;;;;;;;21.20;63.93;96302.91;5083086;28;20207;-67
2021/07/26 05:32:38;;;;;;;14.20;6.37;;;;;;;21.39;63.98;96300.00;5090181;28;20182;-67
2021/07/26 05:35:04;;;;;;;11.87;8.53;;;;;;;21.41;62.99;96303.25;5090296;28;20446;-69
2021/07/26 05:37:30;;;;;;;5.53;4.80;;;;;;;21.28;62.98;96302.53;5090794;28;20569;-70
2021/07/26 05:39:55;;;;;;;8.13;5.37;;;;;;;21.14;63.61;96296.69;5090762;28;20447;-69
2021/07/26 05:42:21;;;;;;;9.10;5.60;;;;;;;21.28;63.52;96299.03;5091065;28;20744;-69
2021/07/26 05:44:47;;;;;;;17.70;7.10;;;;;;;21.48;62.86;96303.88;5093864;28;20292;-69
2021/07/26 05:47:12;;;;;;;19.40;8.03;;;;;;;21.80;62.58;96300.59;5094082;28;20196;-70
2021/07/26 05:49:38;;;;;;;8.70;5.93;;;;;;;21.96;61.32;96298.13;5094886;28;20190;-68
2021/07/26 05:52:04;;;;;;;5.93;5.00;;;;;;;22.07;61.12;96299.88;5094269;28;20201;-70
2021/07/26 05:54:30;;;;;;;28.63;10.80;;;;;;;22.06;60.89;96298.25;5094350;28;20177;-70
2021/07/26 05:56:55;;;;;;;6.13;5.17;;;;;;;22.05;60.67;96296.69;5095075;28;20230;-69
2021/07/26 05:59:21;;;;;;;11.50;5.87;;;;;;;22.04;60.75;96289.72;5094546;28;20209;-68
2021/07/26 06:01:47;;;;;;;23.43;7.20;;;;;;;22.31;60.13;96291.59;5089489;28;20757;-69
2021/07/26 06:04:14;;;;;;;7.40;4.50;;;;;;;22.27;59.72;96287.84;5094150;28;20213;-70
2021/07/26 06:06:41;;;;;;;12.77;5.77;;;;;;;22.32;59.02;96285.22;5093673;28;20193;-68
2021/07/26 06:09:07;;;;;;;9.60;5.23;;;;;;;22.31;59.00;96288.94;5094495;28;20936;-69
2021/07/26 06:11:33;;;;;;;6.70;4.60;;;;;;;22.38;58.06;96295.69;5093946;28;20435;-70
2021/07/26 06:13:58;;;;;;;11.40;5.17;;;;;;;22.43;58.54;96292.31;5093588;28;20174;-68
2021/07/26 06:16:24;;;;;;;14.60;6.33;;;;;;;22.90;57.10;96298.13;5094171;28;20178;-69
2021/07/26 06:18:49;;;;;;;8.40;5.47;;;;;;;22.95;56.68;96303.50;5094521;28;20189;-70
2021/07/26 06:21:15;;;;;;;6.83;4.47;;;;;;;22.82;57.32;96308.19;5094045;28;20208;-71
2021/07/26 06:23:41;;;;;;;6.37;4.07;;;;;;;22.80;57.26;96307.66;5092895;28;20292;-69
2021/07/26 06:26:07;;;;;;;14.60;6.20;;;;;;;23.15;55.90;96311.69;5094442;28;20186;-69
2021/07/26 06:28:33;;;;;;;7.70;4.63;;;;;;;23.36;55.23;96301.19;5094373;28;20177;-68
2021/07/26 06:31:01;;;;;;;10.53;5.57;;;;;;;23.30;55.37;96299.56;5088552;28;20447;-68
2021/07/26 06:33:26;;;;;;;9.93;5.20;;;;;;;23.54;54.85;96301.84;5093493;28;20181;-68
2021/07/26 06:35:52;;;;;;;23.97;9.13;;;;;;;23.73;54.30;96297.69;5094170;28;20423;-69
2021/07/26 06:38:18;;;;;;;34.20;11.57;;;;;;;23.99;53.73;96305.88;5094131;28;20540;-68
2021/07/26 06:40:44;;;;;;;6.77;3.80;;;;;;;23.58;54.44;96297.56;5094314;28;20201;-69
2021/07/26 06:43:09;;;;;;;10.00;4.33;;;;;;;24.04;53.40;96302.41;5096364;28;20204;-69
2021/07/26 06:45:35;;;;;;;8.40;5.23;;;;;;;23.53;54.26;96302.91;5094201;28;20181;-70
2021/07/26 06:48:00;;;;;;;8.60;4.27;;;;;;;23.96;53.09;96311.72;5095599;28;20642;-70
2021/07/26 06:50:26;;;;;;;7.07;3.90;;;;;;;23.54;54.41;96307.19;5094484;28;20284;-69
2021/07/26 06:52:52;;;;;;;3.70;3.40;;;;;;;23.65;54.01;96310.72;5094358;28;20220;-70
2021/07/26 06:55:18;;;;;;;3.47;3.10;;;;;;;24.15;52.84;96313.97;5093915;28;20825;-69
2021/07/26 06:57:43;;;;;;;5.60;3.73;;;;;;;24.55;52.12;96312.50;5094942;28;20207;-69
2021/07/26 07:00:10;;;;;;;15.30;4.30;;;;;;;24.36;52.96;96315.66;5088979;28;20218;-68
2021/07/26 07:02:36;;;;;;;6.90;3.87;;;;;;;24.71;52.21;96316.03;5093219;28;20177;-71
2021/07/26 07:05:02;;;;;;;7.80;4.17;;;;;;;24.60;52.62;96306.34;5093917;28;20415;-71
2021/07/26 07:07:27;;;;;;;5.67;3.43;;;;;;;24.99;51.25;96317.41;5093809;28;20431;-68
2021/07/26 07:09:53;;;;;;;8.33;3.50;;;;;;;24.68;52.02;96320.03;5093291;28;20838;-69
2021/07/26 07:12:19;;;;;;;7.00;3.60;;;;;;;24.84;51.74;96320.06;5093771;28;20182;-70
2021/07/26 07:14:44;;;;;;;6.63;3.33;;;;;;;25.10;51.20;96322.78;5093317;28;20186;-69
2021/07/26 07:17:10;;;;;;;7.80;3.73;;;;;;;25.28;49.82;96321.44;5093549;28;20804;-69
2021/07/26 07:19:43;;;;;;;5.50;3.83;;;;;;;25.48;49.71;96320.66;5093742;28;20192;-69
2021/07/26 07:22:09;;;;;;;11.60;3.70;;;;;;;25.49;48.39;96324.16;5092792;28;20235;-70
2021/07/26 07:24:35;;;;;;;8.97;3.40;;;;;;;25.02;49.78;96329.47;5092518;28;20474;-70
2021/07/26 07:27:00;;;;;;;6.63;3.23;;;;;;;25.40;48.98;96321.16;5092437;28;20561;-68
2021/07/26 07:29:26;;;;;;;3.90;3.00;;;;;;;26.24;46.92;96322.63;5093622;28;20182;-68
2021/07/26 07:31:51;;;;;;;3.90;3.50;;;;;;;26.61;45.87;96330.25;5089376;28;20221;-69
2021/07/26 07:34:17;;;;;;;4.10;3.07;;;;;;;26.95;45.28;96328.75;5093615;28;20618;-70
2021/07/26 07:36:43;;;;;;;4.07;3.53;;;;;;;27.11;44.76;96332.91;5093338;28;20192;-68
2021/07/26 07:39:09;;;;;;;4.40;3.40;;;;;;;27.37;44.69;96332.69;5092334;28;20194;-69
2021/07/26 07:41:35;;;;;;;4.50;3.03;;;;;;;27.49;44.50;96342.31;5092269;28;20502;-68
2021/07/26 07:44:01;;;;;;;6.83;3.67;;;;;;;27.48;44.50;96346.09;5092538;28;20907;-68
2021/07/26 07:46:26;;;;;;;4.93;3.70;;;;;;;27.63;44.36;96340.56;5092192;28;20173;-69
2021/07/26 07:48:52;;;;;;;4.63;3.00;;;;;;;27.95;43.15;96349.16;5092681;28;20534;-70
2021/07/26 07:51:18;;;;;;;5.70;3.10;;;;;;;27.84;44.61;96341.19;5092193;28;20292;-69
2021/07/26 07:53:45;;;;;;;7.77;3.57;;;;;;;27.98;44.49;96346.69;5092287;28;20181;-68
2021/07/26 07:56:10;;;;;;;6.63;3.53;;;;;;;28.10;44.18;96343.63;5092002;28;20264;-70
2021/07/26 07:58:36;;;;;;;5.43;3.40;;;;;;;27.77;45.77;96345.28;5092480;28;20531;-67
2021/07/26 08:01:02;;;;;;;4.90;3.47;;;;;;;27.66;45.27;96345.41;5087389;28;20216;-67
2021/07/26 08:03:28;;;;;;;3.63;3.17;;;;;;;27.26;46.17;96360.78;5091033;28;20285;-69
2021/07/26 08:05:54;;;;;;;6.60;3.10;;;;;;;27.25;45.95;96359.97;5091470;28;20495;-69
2021/07/26 08:08:20;;;;;;;4.50;3.23;;;;;;;27.23;46.21;96359.44;5091298;28;20185;-69
2021/07/26 08:10:45;;;;;;;3.60;3.20;;;;;;;27.39;46.42;96365.50;5092124;28;20579;-69
2021/07/26 08:13:12;;;;;;;5.63;3.23;;;;;;;27.38;45.88;96365.81;5092137;28;20420;-69
2021/07/26 08:15:37;;;;;;;7.60;3.70;;;;;;;27.53;45.62;96367.59;5092523;28;20174;-68
2021/07/26 08:18:03;;;;;;;8.70;3.50;;;;;;;27.39;46.47;96373.56;5090164;28;20427;-71
2021/07/26 08:20:29;;;;;;;6.00;3.63;;;;;;;26.96;47.10;96370.66;5091743;28;20275;-70
2021/07/26 08:22:55;;;;;;;5.33;3.50;;;;;;;26.90;47.04;96377.16;5089638;28;20182;-67
2021/07/26 08:25:21;;;;;;;4.77;3.73;;;;;;;27.29;46.03;96358.31;5091327;28;20178;-69
2021/07/26 08:27:49;;;;;;;5.43;3.97;;;;;;;27.30;45.77;96359.13;5091843;28;20186;-69
2021/07/26 08:30:18;;;;;;;5.77;4.33;;;;;;;27.40;45.96;96364.44;5086884;28;20235;-68
2021/07/26 08:32:44;;;;;;;4.03;3.63;;;;;;;27.68;45.43;96361.25;5090474;28;20408;-70
2021/07/26 08:35:09;;;;;;;3.50;3.20;;;;;;;27.28;45.31;96353.22;5091417;28;20954;-69
2021/07/26 08:37:35;;;;;;;3.27;2.97;;;;;;;27.34;45.74;96352.13;5089623;28;20193;-70
2021/07/26 08:40:02;;;;;;;3.73;3.33;;;;;;;27.35;45.82;96353.69;5090793;28;20205;-68
2021/07/26 08:42:28;;;;;;;3.87;3.47;;;;;;;27.00;46.03;96360.94;5090704;28;20206;-69
2021/07/26 08:44:54;;;;;;;5.67;3.50;;;;;;;27.66;45.23;96360.75;5091175;28;20885;-67
2021/07/26 08:47:22;;;;;;;5.73;3.27;;;;;;;28.04;43.58;96364.41;5094232;28;20435;-69
2021/07/26 08:49:47;;;;;;;2.97;2.70;;;;;;;28.25;42.05;96360.72;5091189;28;20174;-69
2021/07/26 08:52:16;;;;;;;3.77;3.33;;;;;;;28.61;41.97;96352.97;5089965;28;20435;-70
2021/07/26 08:54:43;;;;;;;3.23;2.93;;;;;;;28.53;42.41;96353.63;5089747;28;20182;-70
2021/07/26 08:57:09;;;;;;;4.03;3.63;;;;;;;28.77;42.38;96350.91;5091067;28;20420;-69
2021/07/26 08:59:35;;;;;;;7.70;3.43;;;;;;;29.01;41.53;96351.91;5088889;28;20427;-68
2021/07/26 09:02:00;;;;;;;3.40;3.07;;;;;;;29.18;40.81;96344.09;5085375;28;20185;-69
2021/07/26 09:04:26;;;;;;;7.93;2.80;;;;;;;29.33;38.26;96350.34;5090616;28;20638;-69
2021/07/26 09:06:53;;;;;;;4.77;3.17;;;;;;;29.01;39.50;96346.53;5090980;28;20288;-69
2021/07/26 09:09:18;;;;;;;2.73;2.53;;;;;;;29.58;38.08;96344.56;5090655;28;20269;-68
2021/07/26 09:11:44;;;;;;;6.23;3.03;;;;;;;29.44;38.99;96343.72;5089619;28;20523;-68
2021/07/26 09:14:11;;;;;;;4.10;2.93;;;;;;;29.09;40.84;96345.88;5090703;28;20603;-67
2021/07/26 09:16:36;;;;;;;3.50;3.10;;;;;;;29.20;40.06;96354.59;5089760;28;20428;-71
2021/07/26 09:19:02;;;;;;;2.90;2.70;;;;;;;29.09;39.71;96345.88;5089939;28;20427;-68
2021/07/26 09:21:47;;;;;;;9.90;3.13;;;;;;;28.07;42.18;96354.94;5089690;28;20201;-69
2021/07/26 09:24:12;;;;;;;4.53;2.90;;;;;;;29.13;40.47;96354.97;5090629;28;20221;-69
2021/07/26 09:26:38;;;;;;;5.67;3.20;;;;;;;29.80;39.82;96362.00;5089753;28;20419;-69
2021/07/26 09:29:36;;;;;;;3.20;2.90;;;;;;;29.50;39.54;96350.63;5089655;28;20644;-69
2021/07/26 09:32:05;;;;;;;3.10;2.80;;;;;;;30.16;37.89;96339.75;5088510;28;20648;-69
2021/07/26 09:34:36;;;;;;;5.83;3.20;;;;;;;30.09;39.27;96349.34;5087830;28;20420;-68
2021/07/26 09:37:01;;;;;;;3.60;3.30;;;;;;;29.93;38.30;96338.78;5086605;28;20450;-68
2021/07/26 09:39:29;;;;;;;3.53;2.70;;;;;;;29.70;38.04;96340.59;5087347;28;20448;-69
2021/07/26 09:41:56;;;;;;;3.27;2.70;;;;;;;30.42;37.08;96331.13;5087825;28;20312;-69
2021/07/26 09:44:24;;;;;;;2.97;2.67;;;;;;;30.52;36.88;96337.41;5087927;28;20452;-69
2021/07/26 09:46:50;;;;;;;4.47;2.87;;;;;;;30.26;36.49;96335.22;5087840;28;20918;-69
2021/07/26 09:49:18;;;;;;;8.23;2.83;;;;;;;30.76;35.75;96334.50;5087795;28;20791;-70
2021/07/26 09:52:02;;;;;;;5.47;2.73;;;;;;;31.19;34.76;96333.25;5088063;28;20892;-68
2021/07/26 09:54:44;;;;;;;3.73;2.37;;;;;;;30.86;35.06;96333.47;5079555;28;20428;-69
2021/07/26 09:57:20;;;;;;;3.60;2.80;;;;;;;31.22;34.56;96325.31;5085682;28;20461;-69
2021/07/26 09:59:47;;;;;;;2.67;2.40;;;;;;;30.82;34.96;96321.66;5087641;28;20425;-69
2021/07/26 10:02:17;;;;;;;3.73;2.93;;;;;;;31.13;34.55;96313.66;5087734;28;20840;-68
2021/07/26 10:04:43;;;;;;;3.30;2.10;;;;;;;31.40;33.10;96314.63;5071017;28;20475;-69
2021/07/26 10:07:11;;;;;;;4.13;2.10;;;;;;;31.27;33.01;96316.28;5083575;28;20464;-70
2021/07/26 10:09:41;;;;;;;2.80;2.60;;;;;;;31.40;33.44;96309.22;5090205;28;20506;-69
2021/07/26 10:12:14;;;;;;;2.70;2.50;;;;;;;31.23;33.95;96313.41;5088985;28;20501;-69
2021/07/26 10:14:46;;;;;;;3.43;3.13;;;;;;;30.97;34.16;96317.78;5037109;28;20477;-69
2021/07/26 10:17:12;;;;;;;3.33;2.20;;;;;;;31.47;33.22;96319.59;5090167;28;20477;-69
2021/07/26 10:19:38;;;;;;;4.20;3.00;;;;;;;31.81;33.15;96315.50;5088968;28;20423;-70
2021/07/26 10:22:05;;;;;;;3.17;2.87;;;;;;;32.05;32.31;96317.00;5090023;28;20423;-70
2021/07/26 10:24:46;;;;;;;4.03;2.60;;;;;;;32.08;32.75;96319.09;5088663;28;20237;-67
2021/07/26 10:27:14;;;;;;;3.30;2.60;;;;;;;31.80;33.13;96320.13;5090595;28;20461;-69
2021/07/26 10:29:51;;;;;;;2.90;2.47;;;;;;;31.42;33.25;96323.25;5088294;28;20415;-69
2021/07/26 10:32:29;;;;;;;3.30;3.00;;;;;;;31.41;32.98;96310.81;5091204;28;20447;-69
2021/07/26 10:34:59;;;;;;;4.37;2.97;;;;;;;31.01;33.55;96314.16;5091579;28;20447;-68
2021/07/26 10:37:37;;;;;;;2.87;2.63;;;;;;;31.41;32.79;96317.00;5092097;28;20510;-69
2021/07/26 10:40:30;;;;;;;3.90;2.90;;;;;;;31.44;33.06;96312.09;5093319;28;20833;-68
2021/07/26 10:43:00;;;;;;;3.87;2.20;;;;;;;31.39;32.11;96310.31;5093299;28;20770;-69
2021/07/26 10:45:32;;;;;;;4.17;2.23;;;;;;;31.49;32.11;96307.34;5093511;28;20412;-68
2021/07/26 10:48:22;;;;;;;2.43;2.23;;;;;;;31.79;32.28;96299.56;5093553;28;20918;-70
2021/07/26 10:50:49;;;;;;;2.70;2.50;;;;;;;31.74;32.00;96293.50;5093004;28;20433;-68
2021/07/26 10:53:33;;;;;;;3.00;2.70;;;;;;;32.05;31.66;96284.50;5094622;28;20957;-69
2021/07/26 10:56:08;;;;;;;3.33;2.40;;;;;;;31.78;32.50;96280.91;5093656;28;20426;-68
2021/07/26 10:58:40;;;;;;;4.60;3.13;;;;;;;32.74;31.10;96289.25;5093503;28;20415;-68
2021/07/26 11:01:24;;;;;;;6.90;2.93;;;;;;;32.51;30.65;96290.53;5088286;28;20451;-68
2021/07/26 11:03:51;;;;;;;3.30;2.73;;;;;;;32.62;30.65;96281.78;5092299;28;20915;-69
2021/07/26 11:06:37;;;;;;;4.00;2.70;;;;;;;32.76;30.12;96281.59;5092910;28;20443;-68
2021/07/26 11:09:18;;;;;;;2.77;2.27;;;;;;;32.47;30.39;96272.19;5091556;28;20412;-68
2021/07/26 11:11:48;;;;;;;2.70;2.23;;;;;;;31.63;32.01;96269.34;5092041;28;20532;-68
2021/07/26 11:14:14;;;;;;;2.40;2.17;;;;;;;32.20;31.41;96275.94;5092277;28;20963;-68
2021/07/26 11:16:49;;;;;;;6.33;2.43;;;;;;;32.48;30.80;96275.69;5092902;28;20490;-69
2021/07/26 11:19:51;;;;;;;3.57;2.80;;;;;;;32.37;30.78;96285.25;5092827;28;20416;-68
2021/07/26 11:22:17;;;;;;;3.73;2.47;;;;;;;32.73;30.42;96271.38;5093117;28;20502;-70
2021/07/26 11:24:48;;;;;;;2.67;2.43;;;;;;;33.00;29.87;96263.28;5092229;28;20586;-71
2021/07/26 11:27:15;;;;;;;2.90;2.10;;;;;;;33.71;29.27;96264.69;5091831;28;20412;-68
2021/07/26 11:29:43;;;;;;;2.70;2.27;;;;;;;32.57;30.47;96267.59;5090639;28;20420;-69
2021/07/26 11:32:13;;;;;;;3.13;2.47;;;;;;;32.39;30.79;96256.72;5089285;28;20420;-68